• Join FlightAware (Why Join?)
  • Login
  • US Flag 
12:20AM EDT


 

Airport Tracker/Info


-or-


 

Live Flight TrackerFlight Track Log ✈ UPS1275 ✈ 20-May-2013 ✈ KRDU - KSDF

Flight Track Log - Related Links

Times and Time Zones

All times are in EDT time to prevent confusion due to time zone crossing. See the UPS1275 flight status page for this flight to view local times or setup timezone preferences in your user account.

Time Position Orientation Groundspeed Altitude Reporting Facility
EDT Latitude Longitude Course Direction KTS MPH feet Rate Location/Type
10:15PM 35.8250 -78.9050 270° West 277 319  Level FlightAware
10:16PM 35.8250 -78.9480 270° West 286 329 5,220 Level FlightAware
10:16PM 35.8250 -78.9740 270° West 293 337 6,060 Level FlightAware
10:16PM 35.8250 -79.0290 270° West 363 418 6,660 Level FlightAware
10:17PM 35.8260 -79.0730 272° West 399 459 8,400 Level FlightAware
10:17PM 35.8260 -79.1230 270° West 399 459 10,200 Level FlightAware
10:18PM 35.8317 -79.2942 270° West 409 471 16,200 6,480 Climbing Washington Center
10:21PM 35.7942 -79.6533 263° West 464 534 22,800 2,280 Climbing Atlanta Center
10:22PM 35.7689 -79.8183 259° West 469 540 24,000 1,920 Climbing Atlanta Center
10:23PM 35.7661 -79.9875 269° West 483 556 26,700 3,480 Climbing Atlanta Center
10:24PM 35.8278 -80.1558 294° West 481 554 31,000 3,480 Climbing Atlanta Center
10:25PM 35.8719 -80.2947 291° West 481 554 33,700 1,500 Climbing Atlanta Center
10:26PM 35.9222 -80.4464 292° West 481 554 34,000 120 Climbing Atlanta Center
10:27PM 35.9728 -80.6058 291° West 476 548 34,000  Level Atlanta Center
10:28PM 36.0206 -80.7553 292° West 471 542 34,000  Level Atlanta Center
10:29PM 36.0683 -80.9047 292° West 466 536 34,000  Level Atlanta Center
10:30PM 36.1222 -81.0544 294° West 471 542 34,000  Level Atlanta Center
10:31PM 36.1817 -81.1961 298° West 471 542 34,000  Level Atlanta Center
10:37PM 36.5346 -82.0571 298° West 471 542 34,100  Climbing FlightAware ADS-B
10:37PM 36.5643 -82.1304 297° West 468 539 34,100 -120 Level FlightAware ADS-B
10:38PM 36.6007 -82.2205 297° West 464 534 34,000 -120 Descending FlightAware ADS-B
10:38PM 36.6300 -82.2920 297° West 463 533 34,000  Level FlightAware ADS-B
10:39PM 36.6981 -82.4630 296° West 466 536 34,000  Level FlightAware ADS-B
10:40PM 36.7298 -82.5424 296° West 467 537 34,000  Level FlightAware ADS-B
10:40PM 36.7589 -82.6151 297° West 467 537 34,000 60 Level FlightAware ADS-B
10:41PM 36.7961 -82.7092 296° West 469 540 34,100 -180 Climbing FlightAware ADS-B
10:43PM 36.8936 -82.9565 296° West 469 540 33,600 -480 Descending FlightAware ADS-B
10:43PM 36.9237 -83.0321 296° West 465 535 33,100 -1,020 Descending FlightAware ADS-B
10:44PM 36.9525 -83.1060 296° West 472 543 32,600 -1,020 Descending FlightAware ADS-B
10:45PM 36.9889 -83.2002 296° West 474 545 32,000 -540 Descending FlightAware ADS-B
10:45PM 37.0189 -83.2773 296° West 466 536 32,000  Level FlightAware ADS-B
10:46PM 37.0476 -83.3500 296° West 469 540 32,000  Level FlightAware ADS-B
10:46PM 37.0765 -83.4243 296° West 473 544 32,000  Level FlightAware ADS-B
10:47PM 37.1066 -83.5024 296° West 476 548 32,000  Level FlightAware ADS-B
10:47PM 37.1353 -83.5767 296° West 473 544 32,000 -600 Level FlightAware ADS-B
10:48PM 37.1645 -83.6520 296° West 470 541 31,400 -1,260 Descending FlightAware ADS-B
10:48PM 37.1900 -83.7190 296° West 30,800 -1,320 Descending FlightAware
10:48PM 37.2006 -83.7463 296° West 473 544 30,600 -1,260 Descending FlightAware ADS-B
10:49PM 37.2398 -83.8491 296° West 465 535 29,800 -180 Descending FlightAware ADS-B
10:50PM 37.2690 -83.9310 294° West 471 542 30,400 -1,740 Climbing FlightAware
10:50PM 37.2922 -83.9859 298° West 464 534 28,200 -6,180 Descending FlightAware ADS-B
10:50PM 37.3195 -84.0584 295° West 451 519 26,800 -2,700 Descending FlightAware ADS-B
10:51PM 37.3466 -84.1292 296° West 442 509 25,500 -2,700 Descending FlightAware ADS-B
10:51PM 37.3785 -84.2134 296° West 441 507 23,800 -2,700 Descending FlightAware ADS-B
10:52PM 37.4079 -84.2911 295° West 425 489 22,300 -2,580 Descending FlightAware ADS-B
10:53PM 37.4336 -84.3603 295° West 424 488 21,000 -2,520 Descending FlightAware ADS-B
10:53PM 37.4556 -84.4189 295° West 424 488 19,800 -2,520 Descending Indianapolis Center
10:54PM 37.5022 -84.5475 295° West 407 468 17,300 -2,520 Descending Indianapolis Center
10:55PM 37.5503 -84.6736 296° West 400 460 14,700 -2,460 Descending Indianapolis Center
10:56PM 37.5956 -84.7967 295° West 389 448 12,400 -1,680 Descending Indianapolis Center
10:57PM 37.6369 -84.9086 295° West 354 407 11,300 -840 Descending Indianapolis Center
10:58PM 37.6822 -84.9919 304° West 301 346 10,700 -600 Descending Indianapolis Center
10:59PM 37.7381 -85.0689 313° West 293 337 10,100 -720 Descending Indianapolis Center
11:05PM 38.0510 -85.5030 313° West 281 323 5,900 -780 Descending FlightAware
11:05PM 38.0620 -85.5200 309° West 279 321 5,800 -780 Descending FlightAware
11:06PM 38.0890 -85.5570 313° West 281 323 5,400 -840 Descending FlightAware
11:06PM 38.1200 -85.5860 324° Northwest 289 333 5,000 -480 Descending FlightAware
11:07PM 38.1510 -85.5990 342° North 287 330 5,000  Level FlightAware
11:07PM 38.1710 -85.6100 337° Northwest 284 327 5,000 -300 Level FlightAware
11:07PM 38.2080 -85.6280 339° North 284 327 4,800 -660 Descending FlightAware
11:08PM 38.2390 -85.6370 347° North 289 333 4,400 -1,200 Descending FlightAware
11:08PM 38.2770 -85.6500 345° North 287 330 3,700 -1,380 Descending FlightAware
11:08PM 38.2900 -85.6550 343° North 282 325 3,500 -1,080 Descending FlightAware
11:09PM 38.3260 -85.6690 343° North 257 296 3,000 -720 Descending FlightAware
11:09PM 38.3400 -85.6810 326° Northwest 223 257 3,000  Level FlightAware
11:09PM 38.3450 -85.6950 294° West 199 229 3,000 -600 Level FlightAware
11:10PM 38.3450 -85.7250 270° West 185 213 2,600 -600 Descending FlightAware
11:10PM 38.3440 -85.7410 265° West 183 211 2,600 -240 Level FlightAware
11:10PM 38.3390 -85.7550 246° West 171 197 2,500 -240 Descending FlightAware
11:11PM 38.3290 -85.7610 205° Southwest 168 193 2,500  Level FlightAware
11:11PM 38.3090 -85.7640 187° South 169 194 2,500  Level FlightAware
11:11PM 38.2990 -85.7650 184° South 167 192 2,500 -180 Level FlightAware
11:12PM 38.2790 -85.7620 173° South 129 148 2,400 -480 Descending FlightAware
11:12PM 38.2640 -85.7580 168° South 129 148 2,100 -780 Descending FlightAware
11:12PM 38.2560 -85.7550 164° South 126 145 1,900 -780 Descending FlightAware
11:13PM 38.2410 -85.7500 165° South 125 144 1,600 -600 Descending FlightAware
11:13PM 38.2330 -85.7470 164° South 125 144 1,500 -720 Descending FlightAware
11:14PM 38.2160 -85.7410 165° South 130 150 1,100 -720 Descending FlightAware
11:14PM 38.1980 -85.7350 165° South 137 158 800 -660 Descending FlightAware
11:14PM 38.1830 -85.7300 165° South 136 157 500 -720 Descending FlightAware